createdAt,value
2019-02-18T00:00:29.741Z,2.03
2019-02-18T00:02:58.285Z,1.67
2019-02-18T00:05:26.862Z,1.40
2019-02-18T00:07:55.328Z,1.30
2019-02-18T00:10:23.790Z,1.73
2019-02-18T00:12:53.344Z,1.57
2019-02-18T00:15:21.890Z,2.33
2019-02-18T00:17:50.385Z,1.20
2019-02-18T00:20:18.935Z,4.47
2019-02-18T00:22:47.416Z,1.60
2019-02-18T00:25:15.926Z,1.10
2019-02-18T00:27:44.393Z,1.17
2019-02-18T00:30:13.009Z,2.23
2019-02-18T00:32:41.505Z,1.83
2019-02-18T00:35:10.117Z,2.77
2019-02-18T00:37:38.657Z,1.97
2019-02-18T00:40:09.081Z,1.77
2019-02-18T00:42:37.622Z,1.60
2019-02-18T00:45:11.787Z,1.23
2019-02-18T00:47:40.341Z,1.57
2019-02-18T00:50:10.752Z,3.00
2019-02-18T00:52:39.241Z,1.90
2019-02-18T00:55:09.271Z,1.20
2019-02-18T00:57:37.773Z,2.30
2019-02-18T01:00:09.676Z,1.63
2019-02-18T01:02:38.163Z,2.97
2019-02-18T01:05:08.122Z,1.83
2019-02-18T01:07:36.657Z,1.77
2019-02-18T01:10:10.669Z,4.77
2019-02-18T01:12:39.217Z,2.27
2019-02-18T01:15:10.608Z,2.00
2019-02-18T01:17:39.096Z,1.87
2019-02-18T01:20:10.808Z,1.83
2019-02-18T01:22:49.222Z,2.30
2019-02-18T01:25:17.711Z,3.57
2019-02-18T01:27:46.168Z,2.30
2019-02-18T01:30:16.292Z,4.90
2019-02-18T01:32:44.918Z,2.50
2019-02-18T01:35:13.842Z,3.40
2019-02-18T01:37:45.889Z,4.87
2019-02-18T01:40:14.095Z,4.53
2019-02-18T01:42:42.942Z,2.67
2019-02-18T01:45:13.659Z,1.53
2019-02-18T01:47:42.140Z,2.57
2019-02-18T01:50:14.948Z,3.73
2019-02-18T01:52:43.504Z,2.43
2019-02-18T01:55:13.442Z,1.73
2019-02-18T01:57:42.014Z,2.03
2019-02-18T02:00:13.425Z,2.10
2019-02-18T02:02:41.888Z,2.53
2019-02-18T02:05:12.074Z,2.17
2019-02-18T02:07:40.586Z,2.37
2019-02-18T02:10:12.082Z,1.60
2019-02-18T02:12:40.654Z,1.73
2019-02-18T02:15:12.196Z,1.30
2019-02-18T02:17:40.656Z,5.07
2019-02-18T02:20:09.284Z,1.63
2019-02-18T02:22:37.740Z,1.30
2019-02-18T02:25:06.880Z,1.50
2019-02-18T02:27:35.349Z,2.07
2019-02-18T02:30:05.154Z,2.20
2019-02-18T02:32:33.797Z,2.20
2019-02-18T02:35:02.251Z,1.60
2019-02-18T02:37:30.858Z,4.13
2019-02-18T02:39:59.369Z,1.80
2019-02-18T02:42:27.861Z,2.13
2019-02-18T02:44:56.316Z,1.80
2019-02-18T02:47:24.828Z,4.30
2019-02-18T02:49:53.569Z,2.23
2019-02-18T02:52:22.139Z,2.03
2019-02-18T02:54:50.693Z,2.87
2019-02-18T02:57:19.184Z,2.67
2019-02-18T02:59:47.670Z,3.03
2019-02-18T03:02:16.220Z,2.50
2019-02-18T03:04:44.697Z,2.47
2019-02-18T03:07:13.213Z,1.43
2019-02-18T03:09:41.682Z,2.03
2019-02-18T03:12:10.165Z,1.40
2019-02-18T03:14:38.738Z,2.60
2019-02-18T03:17:07.205Z,3.23
2019-02-18T03:19:35.681Z,2.00
2019-02-18T03:22:04.181Z,2.10
2019-02-18T03:24:32.723Z,3.30
2019-02-18T03:27:01.244Z,1.83
2019-02-18T03:29:57.054Z,1.77
2019-02-18T03:32:25.537Z,2.53
2019-02-18T03:34:54.021Z,2.10
2019-02-18T03:37:22.606Z,1.70
2019-02-18T03:39:51.244Z,4.57
2019-02-18T03:42:19.794Z,2.33
2019-02-18T03:44:48.293Z,1.27
2019-02-18T03:47:16.755Z,6.27
2019-02-18T03:49:45.234Z,1.40
2019-02-18T03:52:13.793Z,3.97
2019-02-18T03:54:42.313Z,1.90
2019-02-18T03:57:10.862Z,4.50
2019-02-18T03:59:39.424Z,3.03
2019-02-18T04:02:08.060Z,1.70
2019-02-18T04:04:36.592Z,2.37
2019-02-18T04:07:05.084Z,1.30
2019-02-18T04:09:33.536Z,2.40
2019-02-18T04:12:02.000Z,1.80
2019-02-18T04:14:30.564Z,2.10
2019-02-18T04:16:59.245Z,1.17
2019-02-18T04:19:27.709Z,2.00
2019-02-18T04:21:56.208Z,3.40
2019-02-18T04:24:24.668Z,2.00
2019-02-18T04:26:53.232Z,4.00
2019-02-18T04:29:21.688Z,5.33
2019-02-18T04:31:50.150Z,2.33
2019-02-18T04:34:18.703Z,2.70
2019-02-18T04:36:47.186Z,2.83
2019-02-18T04:39:15.676Z,1.43
2019-02-18T04:41:44.152Z,3.17
2019-02-18T04:44:12.699Z,2.83
2019-02-18T04:46:41.206Z,3.10
2019-02-18T04:49:09.696Z,2.93
2019-02-18T04:51:38.175Z,2.70
2019-02-18T04:54:06.823Z,2.90
2019-02-18T04:56:35.360Z,4.23
2019-02-18T04:59:03.843Z,3.53
2019-02-18T05:01:32.572Z,4.20
2019-02-18T05:04:01.075Z,2.03
2019-02-18T05:06:29.641Z,2.93
2019-02-18T05:09:05.282Z,2.10
2019-02-18T05:11:28.318Z,4.97
2019-02-18T05:13:56.895Z,2.07
2019-02-18T05:16:25.366Z,2.43
2019-02-18T05:18:53.821Z,1.40
2019-02-18T05:21:22.318Z,2.17
2019-02-18T05:23:50.760Z,2.00
2019-02-18T05:26:19.208Z,4.10
2019-02-18T05:28:47.691Z,4.00
2019-02-18T05:31:16.140Z,2.33
2019-02-18T05:34:08.888Z,2.67
2019-02-18T05:36:37.901Z,4.20
2019-02-18T05:39:17.487Z,5.30
2019-02-18T05:41:37.743Z,7.03
2019-02-18T05:44:06.188Z,3.90
2019-02-18T05:46:34.676Z,12.67
2019-02-18T05:49:03.137Z,6.27
2019-02-18T05:51:31.681Z,5.00
2019-02-18T05:54:00.198Z,4.83
2019-02-18T05:56:28.689Z,4.83
2019-02-18T05:58:57.148Z,4.10
2019-02-18T06:01:25.646Z,3.97
2019-02-18T06:03:54.182Z,3.00
2019-02-18T06:06:22.717Z,6.40
2019-02-18T06:08:51.201Z,4.67
2019-02-18T06:11:19.711Z,3.03
2019-02-18T06:13:48.334Z,4.93
2019-02-18T06:16:16.881Z,3.43
2019-02-18T06:18:45.377Z,5.80
2019-02-18T06:21:13.960Z,2.60
2019-02-18T06:23:42.498Z,2.80
2019-02-18T06:26:10.965Z,3.73
2019-02-18T06:28:39.445Z,6.43
2019-02-18T06:31:07.910Z,4.90
2019-02-18T06:33:36.356Z,4.93
2019-02-18T06:36:04.877Z,10.93
2019-02-18T06:38:33.542Z,6.60
2019-02-18T06:41:02.002Z,2.70
2019-02-18T06:43:30.489Z,2.67
2019-02-18T06:46:09.818Z,3.63
2019-02-18T06:48:40.008Z,4.13
2019-02-18T06:51:08.551Z,6.40
2019-02-18T06:53:37.008Z,3.77
2019-02-18T06:56:05.508Z,4.63
2019-02-18T06:58:35.638Z,9.93
2019-02-18T07:01:08.320Z,4.70
2019-02-18T07:03:40.974Z,6.00
2019-02-18T07:06:11.091Z,6.37
2019-02-18T07:08:47.102Z,7.30
2019-02-18T07:11:17.189Z,4.60
2019-02-18T07:13:45.646Z,3.03
2019-02-18T07:16:14.133Z,2.97
2019-02-18T07:18:42.610Z,3.53
2019-02-18T07:21:11.083Z,7.70
2019-02-18T07:23:39.576Z,4.03
2019-02-18T07:26:08.075Z,5.20
2019-02-18T07:28:36.548Z,4.67
2019-02-18T07:31:05.339Z,4.40
2019-02-18T07:33:33.922Z,5.87
2019-02-18T07:36:02.465Z,4.20
2019-02-18T07:38:31.031Z,3.87
2019-02-18T07:40:59.600Z,5.67
2019-02-18T07:43:28.095Z,12.83
2019-02-18T07:45:56.644Z,7.33
2019-02-18T07:48:25.152Z,5.30
2019-02-18T07:50:53.610Z,11.43
2019-02-18T07:53:22.104Z,7.77
2019-02-18T07:55:50.565Z,7.97
2019-02-18T07:58:19.065Z,8.13
2019-02-18T08:00:47.536Z,10.27
2019-02-18T08:03:26.162Z,11.47
2019-02-18T08:05:54.674Z,7.80
2019-02-18T08:08:23.279Z,7.30
2019-02-18T08:10:51.843Z,10.63
2019-02-18T08:13:20.399Z,8.43
2019-02-18T08:15:48.853Z,5.97
2019-02-18T08:18:17.317Z,6.60
2019-02-18T08:20:45.805Z,7.33
2019-02-18T08:23:14.295Z,4.83
2019-02-18T08:25:42.857Z,9.67
2019-02-18T08:28:11.621Z,4.60
2019-02-18T08:30:40.243Z,8.47
2019-02-18T08:33:08.737Z,8.70
2019-02-18T08:35:37.209Z,9.50
2019-02-18T08:38:05.669Z,9.90
2019-02-18T08:40:34.166Z,7.47
2019-02-18T08:43:02.634Z,7.23
2019-02-18T08:45:31.201Z,5.53
2019-02-18T08:47:59.773Z,5.43
2019-02-18T08:50:28.253Z,3.47
2019-02-18T08:52:56.765Z,4.80
2019-02-18T08:55:25.616Z,3.53
2019-02-18T08:57:54.337Z,3.70
2019-02-18T09:00:22.878Z,4.03
2019-02-18T09:02:51.352Z,4.33
2019-02-18T09:05:20.039Z,3.53
2019-02-18T09:07:48.626Z,1.33
2019-02-18T09:10:17.081Z,1.10
2019-02-18T09:12:45.552Z,1.50
2019-02-18T09:15:14.519Z,2.27
2019-02-18T09:17:43.240Z,5.13
2019-02-18T09:20:11.869Z,2.43
2019-02-18T09:22:42.124Z,3.10
2019-02-18T09:25:12.240Z,3.50
2019-02-18T09:27:40.717Z,10.07
2019-02-18T09:30:10.281Z,3.73
2019-02-18T09:32:51.935Z,3.37
2019-02-18T09:35:20.492Z,3.00
2019-02-18T09:37:49.121Z,3.60
2019-02-18T09:40:17.789Z,6.20
2019-02-18T09:42:46.240Z,4.07
2019-02-18T09:45:15.449Z,5.87
2019-02-18T09:47:44.080Z,7.23
2019-02-18T09:50:12.691Z,3.90
2019-02-18T09:52:41.245Z,4.50
2019-02-18T09:55:10.760Z,3.60
2019-02-18T09:57:39.265Z,3.27
2019-02-18T10:00:10.401Z,4.53
2019-02-18T10:02:39.029Z,10.23
2019-02-18T10:05:08.745Z,4.03
2019-02-18T10:07:37.300Z,4.67
2019-02-18T10:10:08.034Z,3.63
2019-02-18T10:12:36.518Z,5.47
2019-02-18T10:15:08.069Z,4.30
2019-02-18T10:17:36.566Z,8.33
2019-02-18T10:20:08.285Z,3.53
2019-02-18T10:22:36.748Z,3.57
2019-02-18T10:25:08.415Z,13.20
2019-02-18T10:27:36.894Z,8.30
2019-02-18T10:30:07.192Z,5.43
2019-02-18T10:32:35.943Z,3.43
2019-02-18T10:35:12.054Z,4.13
2019-02-18T10:37:40.546Z,3.13
2019-02-18T10:40:10.849Z,3.13
2019-02-18T10:42:39.312Z,3.83
2019-02-18T10:45:11.380Z,3.33
2019-02-18T10:47:40.151Z,4.03
2019-02-18T10:50:10.825Z,9.80
2019-02-18T10:52:58.761Z,2.53
2019-02-18T10:55:27.309Z,7.67
2019-02-18T10:57:55.845Z,3.87
2019-02-18T11:00:24.676Z,3.80
2019-02-18T11:02:53.260Z,9.03
2019-02-18T11:05:22.020Z,3.27
2019-02-18T11:07:50.494Z,4.67
2019-02-18T11:10:19.061Z,6.97
2019-02-18T11:12:47.865Z,6.20
2019-02-18T11:15:16.406Z,1.90
2019-02-18T11:17:45.332Z,1.60
2019-02-18T11:20:14.559Z,3.93
2019-02-18T11:22:53.193Z,2.60
2019-02-18T11:25:21.756Z,2.63
2019-02-18T11:27:50.331Z,1.30
2019-02-18T11:30:19.805Z,2.03
2019-02-18T11:32:48.392Z,2.73
2019-02-18T11:35:17.095Z,2.27
2019-02-18T11:37:45.583Z,2.00
2019-02-18T11:40:16.556Z,2.00
2019-02-18T11:42:45.276Z,5.00
2019-02-18T11:45:15.473Z,2.43
2019-02-18T11:47:44.017Z,2.47
2019-02-18T11:50:14.643Z,5.87
2019-02-18T11:52:43.294Z,5.03
2019-02-18T11:55:13.418Z,6.07
2019-02-18T11:57:42.687Z,3.63
2019-02-18T12:00:13.878Z,5.40
2019-02-18T12:02:42.720Z,12.30
2019-02-18T12:05:11.656Z,6.50
2019-02-18T12:07:40.362Z,5.47
2019-02-18T12:10:13.326Z,5.83
2019-02-18T12:12:42.465Z,9.20
2019-02-18T12:15:15.633Z,6.57
2019-02-18T12:17:44.267Z,4.70
2019-02-18T12:20:14.827Z,4.97
2019-02-18T12:22:44.208Z,4.50
2019-02-18T12:25:13.588Z,6.27
2019-02-18T12:27:42.813Z,8.40
2019-02-18T12:30:18.007Z,10.93
2019-02-18T12:32:46.633Z,9.10
2019-02-18T12:35:15.188Z,10.27
2019-02-18T12:37:43.780Z,5.63
2019-02-18T12:40:14.133Z,10.93
2019-02-18T12:42:42.873Z,6.33
2019-02-18T12:45:14.310Z,5.57
2019-02-18T12:47:43.048Z,6.30
2019-02-18T12:50:12.421Z,17.13
2019-02-18T12:52:41.045Z,13.47
2019-02-18T12:55:10.852Z,4.77
2019-02-18T12:57:39.883Z,6.03
2019-02-18T13:00:11.796Z,4.73
2019-02-18T13:02:44.279Z,7.43
2019-02-18T13:05:11.048Z,3.60
2019-02-18T13:07:39.745Z,2.73
2019-02-18T13:10:10.033Z,3.03
2019-02-18T13:12:38.767Z,3.27
2019-02-18T13:15:10.368Z,4.10
2019-02-18T13:17:38.918Z,3.73
2019-02-18T13:20:08.820Z,4.13
2019-02-18T13:22:37.810Z,11.83
2019-02-18T13:25:08.089Z,4.50
2019-02-18T13:27:36.662Z,6.63
2019-02-18T13:30:16.076Z,8.27
2019-02-18T13:32:44.681Z,6.10
2019-02-18T13:35:13.358Z,3.50
2019-02-18T13:37:42.124Z,4.07
2019-02-18T13:40:13.746Z,7.93
2019-02-18T13:42:42.887Z,13.47
2019-02-18T13:45:11.567Z,12.60
2019-02-18T13:47:40.189Z,5.20
2019-02-18T13:50:11.077Z,8.97
2019-02-18T13:52:39.652Z,7.67
2019-02-18T13:55:10.357Z,9.03
2019-02-18T13:57:39.415Z,7.63
2019-02-18T14:00:20.901Z,6.00
2019-02-18T14:02:50.860Z,7.10
2019-02-18T14:05:21.061Z,10.40
2019-02-18T14:07:49.697Z,8.07
2019-02-18T14:10:18.913Z,6.73
2019-02-18T14:12:47.623Z,14.57
2019-02-18T14:15:17.148Z,6.50
2019-02-18T14:17:45.805Z,2.90
2019-02-18T14:20:15.192Z,4.47
2019-02-18T14:22:43.814Z,6.27
2019-02-18T14:25:13.336Z,59.07
2019-02-18T14:27:41.976Z,20.00
2019-02-18T14:30:18.337Z,7.93
2019-02-18T14:32:47.056Z,10.13
2019-02-18T14:35:17.825Z,7.10
2019-02-18T14:37:46.783Z,6.60
2019-02-18T14:40:18.003Z,5.50
2019-02-18T14:42:46.616Z,7.70
2019-02-18T14:45:16.025Z,2.90
2019-02-18T14:47:44.733Z,4.33
2019-02-18T14:50:15.310Z,4.70
2019-02-18T14:52:44.553Z,3.73
2019-02-18T14:55:13.411Z,4.10
2019-02-18T14:57:42.045Z,6.10
2019-02-18T15:00:22.280Z,15.03
2019-02-18T15:02:55.515Z,11.17
2019-02-18T15:05:25.264Z,5.17
2019-02-18T15:07:53.896Z,6.40
2019-02-18T15:10:22.634Z,2.40
2019-02-18T15:12:51.325Z,13.60
2019-02-18T15:15:20.032Z,3.47
2019-02-18T15:17:48.635Z,4.40
2019-02-18T15:20:17.841Z,5.83
2019-02-18T15:22:46.398Z,6.37
2019-02-18T15:25:15.041Z,4.27
2019-02-18T15:27:43.633Z,9.03
2019-02-18T15:30:15.229Z,9.63
2019-02-18T15:32:43.800Z,7.13
2019-02-18T15:35:14.301Z,8.80
2019-02-18T15:37:42.915Z,6.53
2019-02-18T15:40:13.504Z,10.40
2019-02-18T15:42:42.788Z,9.57
2019-02-18T15:45:11.625Z,7.47
2019-02-18T15:47:40.187Z,7.17
2019-02-18T15:50:11.555Z,8.70
2019-02-18T15:52:40.112Z,9.63
2019-02-18T15:55:09.726Z,15.07
2019-02-18T15:57:38.266Z,9.20
2019-02-18T16:00:12.678Z,12.67
2019-02-18T16:02:41.244Z,6.13
2019-02-18T16:05:09.889Z,12.40
2019-02-18T16:07:38.463Z,11.60
2019-02-18T16:10:09.024Z,8.23
2019-02-18T16:12:37.669Z,13.33
2019-02-18T16:15:08.579Z,10.57
2019-02-18T16:17:37.128Z,8.37
2019-02-18T16:20:11.434Z,5.60
2019-02-18T16:22:39.996Z,11.10
2019-02-18T16:25:20.517Z,15.87
2019-02-18T16:27:49.485Z,7.57
2019-02-18T16:30:18.020Z,14.13
2019-02-18T16:32:46.616Z,7.73
2019-02-18T16:35:15.319Z,18.30
2019-02-18T16:37:43.850Z,19.83
2019-02-18T16:40:15.486Z,9.70
2019-02-18T16:42:44.113Z,11.17
2019-02-18T16:45:14.357Z,11.50
2019-02-18T16:47:42.928Z,12.00
2019-02-18T16:50:11.541Z,15.43
2019-02-18T16:52:40.190Z,13.20
2019-02-18T16:55:13.593Z,9.83
2019-02-18T16:57:42.300Z,8.33
2019-02-18T17:00:15.830Z,15.30
2019-02-18T17:02:44.396Z,13.43
2019-02-18T17:05:12.978Z,12.67
2019-02-18T17:07:41.549Z,8.20
2019-02-18T17:10:10.293Z,11.73
2019-02-18T17:12:38.834Z,8.93
2019-02-18T17:15:10.778Z,7.37
2019-02-18T17:17:39.332Z,10.20
2019-02-18T17:20:08.475Z,6.50
2019-02-18T17:22:37.022Z,6.00
2019-02-18T17:25:08.986Z,6.50
2019-02-18T17:27:37.811Z,6.83
2019-02-18T17:30:10.057Z,7.83
2019-02-18T17:32:38.641Z,13.70
2019-02-18T17:35:12.021Z,7.03
2019-02-18T17:37:40.716Z,8.17
2019-02-18T17:40:11.853Z,7.40
2019-02-18T17:42:40.868Z,11.07
2019-02-18T17:45:17.490Z,7.93
2019-02-18T17:47:46.101Z,6.00
2019-02-18T17:50:16.102Z,7.20
2019-02-18T17:52:45.082Z,18.70
2019-02-18T17:55:17.472Z,12.43
2019-02-18T17:57:46.023Z,8.93
2019-02-18T18:00:21.631Z,18.13
2019-02-18T18:02:50.260Z,11.30
2019-02-18T18:05:18.868Z,8.93
2019-02-18T18:07:47.404Z,7.27
2019-02-18T18:10:16.581Z,15.40
2019-02-18T18:12:45.128Z,15.30
2019-02-18T18:15:16.154Z,17.97
2019-02-18T18:17:44.687Z,22.17
2019-02-18T18:20:14.405Z,13.00
2019-02-18T18:22:43.017Z,21.03
2019-02-18T18:25:14.599Z,11.10
2019-02-18T18:27:43.241Z,24.40
2019-02-18T18:30:19.364Z,12.90
2019-02-18T18:32:47.926Z,17.03
2019-02-18T18:35:16.548Z,11.23
2019-02-18T18:37:45.209Z,5.63
2019-02-18T18:40:18.341Z,6.97
2019-02-18T18:42:47.040Z,15.60
2019-02-18T18:45:17.242Z,7.43
2019-02-18T18:47:45.903Z,11.87
2019-02-18T18:50:16.633Z,22.63
2019-02-18T18:52:45.842Z,16.13
2019-02-18T18:55:14.665Z,13.17
2019-02-18T18:57:43.246Z,10.03
2019-02-18T19:00:15.524Z,14.83
2019-02-18T19:02:44.060Z,17.50
2019-02-18T19:05:12.646Z,23.20
2019-02-18T19:07:41.604Z,15.40
2019-02-18T19:10:10.695Z,14.83
2019-02-18T19:12:39.253Z,11.03
2019-02-18T19:15:10.794Z,22.67
2019-02-18T19:17:39.655Z,18.97
2019-02-18T19:20:09.655Z,22.67
2019-02-18T19:22:39.789Z,16.33
2019-02-18T19:25:09.808Z,15.10
2019-02-18T19:27:38.456Z,14.77
2019-02-18T19:30:12.774Z,14.10
2019-02-18T19:32:41.373Z,7.93
2019-02-18T19:35:09.925Z,12.50
2019-02-18T19:37:38.428Z,14.13
2019-02-18T19:40:10.255Z,12.10
2019-02-18T19:42:38.792Z,11.47
2019-02-18T19:45:13.260Z,10.50
2019-02-18T19:47:42.336Z,10.37
2019-02-18T19:50:10.973Z,14.83
2019-02-18T19:52:39.808Z,11.33
2019-02-18T19:55:10.191Z,7.03
2019-02-18T19:57:38.792Z,6.83
2019-02-18T20:00:13.745Z,15.40
2019-02-18T20:02:42.404Z,12.10
2019-02-18T20:05:11.068Z,9.93
2019-02-18T20:07:39.564Z,9.67
2019-02-18T20:10:12.959Z,8.50
2019-02-18T20:12:41.516Z,7.53
2019-02-18T20:15:16.004Z,7.30
2019-02-18T20:17:44.501Z,9.27
2019-02-18T20:20:14.922Z,6.77
2019-02-18T20:22:43.468Z,8.10
2019-02-18T20:25:12.017Z,8.63
2019-02-18T20:27:40.594Z,5.40
2019-02-18T20:30:16.686Z,6.93
2019-02-18T20:32:45.331Z,7.10
2019-02-18T20:35:13.970Z,7.37
2019-02-18T20:37:42.511Z,11.40
2019-02-18T20:40:11.930Z,9.33
2019-02-18T20:42:41.086Z,6.93
2019-02-18T20:45:14.007Z,6.73
2019-02-18T20:47:42.666Z,7.73
2019-02-18T20:50:12.816Z,8.33
2019-02-18T20:52:41.779Z,7.83
2019-02-18T20:55:12.704Z,6.83
2019-02-18T20:57:41.302Z,4.43
2019-02-18T21:00:19.307Z,7.97
2019-02-18T21:02:48.089Z,6.10
2019-02-18T21:05:16.628Z,5.07
2019-02-18T21:07:45.215Z,5.40
2019-02-18T21:10:17.157Z,4.77
2019-02-18T21:12:45.867Z,7.13
2019-02-18T21:15:14.597Z,11.97
2019-02-18T21:17:43.178Z,6.03
2019-02-18T21:20:15.100Z,5.73
2019-02-18T21:22:43.674Z,8.87
2019-02-18T21:25:12.323Z,6.07
2019-02-18T21:27:41.087Z,6.33
2019-02-18T21:30:16.805Z,5.80
2019-02-18T21:32:45.363Z,4.03
2019-02-18T21:35:14.117Z,6.30
2019-02-18T21:37:43.098Z,5.47
2019-02-18T21:40:12.479Z,7.07
2019-02-18T21:42:41.197Z,5.57
2019-02-18T21:45:16.110Z,4.37
2019-02-18T21:47:44.650Z,6.00
2019-02-18T21:50:13.295Z,4.20
2019-02-18T21:52:42.019Z,4.43
2019-02-18T21:55:12.581Z,4.20
2019-02-18T21:57:41.210Z,3.87
2019-02-18T22:00:18.876Z,4.53
2019-02-18T22:02:48.056Z,3.87
2019-02-18T22:05:17.263Z,5.83
2019-02-18T22:07:45.841Z,4.33
2019-02-18T22:10:14.850Z,3.20
2019-02-18T22:12:43.441Z,6.17
2019-02-18T22:15:14.314Z,3.80
2019-02-18T22:17:42.843Z,4.00
2019-02-18T22:20:13.222Z,3.87
2019-02-18T22:22:41.808Z,5.07
2019-02-18T22:25:12.756Z,3.67
2019-02-18T22:27:41.574Z,4.20
2019-02-18T22:30:16.402Z,4.97
2019-02-18T22:32:44.916Z,4.53
2019-02-18T22:35:13.875Z,5.27
2019-02-18T22:37:42.625Z,3.23
2019-02-18T22:40:12.804Z,3.80
2019-02-18T22:42:41.300Z,4.03
2019-02-18T22:45:11.403Z,6.73
2019-02-18T22:47:39.971Z,4.37
2019-02-18T22:50:10.608Z,4.80
2019-02-18T22:52:39.214Z,4.80
2019-02-18T22:55:08.953Z,5.10
2019-02-18T22:57:37.592Z,4.07
2019-02-18T23:00:15.185Z,6.43
2019-02-18T23:02:45.578Z,5.70
2019-02-18T23:05:14.473Z,4.83
2019-02-18T23:07:43.053Z,4.37
2019-02-18T23:10:11.597Z,4.40
2019-02-18T23:12:40.189Z,8.47
2019-02-18T23:15:08.861Z,5.37
2019-02-18T23:17:37.393Z,6.03
2019-02-18T23:20:06.205Z,4.53
2019-02-18T23:22:35.259Z,6.63
2019-02-18T23:25:03.889Z,4.90
2019-02-18T23:27:32.456Z,5.13
2019-02-18T23:30:01.038Z,4.77
2019-02-18T23:32:29.611Z,5.00
2019-02-18T23:34:58.194Z,4.90
2019-02-18T23:37:26.653Z,5.77
2019-02-18T23:39:55.137Z,4.00
2019-02-18T23:42:23.811Z,4.73
2019-02-18T23:44:59.147Z,4.20
2019-02-18T23:47:22.541Z,5.33
2019-02-18T23:49:51.190Z,4.40
2019-02-18T23:52:19.742Z,4.43
2019-02-18T23:54:48.276Z,4.33
2019-02-18T23:57:16.841Z,5.07
2019-02-18T23:59:45.405Z,6.00
